createdAt,value
2023-11-28T08:47:23.033Z,20.80
2023-11-28T08:49:26.019Z,20.40
2023-11-28T08:53:55.767Z,20.10
2023-11-28T08:58:17.484Z,19.60
2023-11-28T09:00:20.056Z,19.50
2023-11-28T09:02:27.324Z,19.20
2023-11-28T09:04:39.619Z,12.90
2023-11-28T09:06:42.635Z,10.80
2023-11-28T09:08:46.943Z,8.20
2023-11-28T09:10:49.673Z,10.70
2023-11-28T09:12:56.091Z,12.60
2023-11-28T09:15:01.231Z,13.80
2023-11-28T09:17:09.269Z,14.40
2023-11-28T09:19:11.368Z,15.20
2023-11-28T09:21:43.216Z,14.60
2023-11-28T09:23:49.164Z,12.90
2023-11-28T09:26:04.612Z,14.10
2023-11-28T09:28:06.729Z,16.00
2023-11-28T09:30:10.600Z,15.50
2023-11-28T09:32:14.896Z,15.30
2023-11-28T09:34:20.586Z,16.10
2023-11-28T09:36:26.720Z,17.10
2023-11-28T09:38:33.769Z,17.90
2023-11-28T09:40:39.522Z,18.60
2023-11-28T09:42:47.390Z,19.50
2023-11-28T09:45:15.942Z,19.90
2023-11-28T09:47:32.079Z,20.40
2023-11-28T09:49:43.896Z,20.70
2023-11-28T09:51:51.576Z,21.00
2023-11-28T09:54:01.486Z,21.20
2023-11-28T09:56:04.992Z,21.50
2023-11-28T09:58:37.595Z,21.70
2023-11-28T10:00:39.932Z,22.00
2023-11-28T10:02:46.232Z,22.20
2023-11-28T10:04:49.284Z,22.30
2023-11-28T10:06:56.898Z,22.60
2023-11-28T10:09:02.889Z,22.70
2023-11-28T10:11:06.666Z,22.80
2023-11-28T10:13:09.576Z,22.90
2023-11-28T10:26:02.012Z,23.00
2023-11-28T10:28:06.845Z,23.00
